createdAt,value
2023-02-13T00:00:32.497Z,79.30
2023-02-13T00:02:59.569Z,79.65
2023-02-13T00:05:26.560Z,79.41
2023-02-13T00:07:53.508Z,79.35
2023-02-13T00:10:20.671Z,79.90
2023-02-13T00:12:47.720Z,79.59
2023-02-13T00:15:14.676Z,80.26
2023-02-13T00:17:41.649Z,79.69
2023-02-13T00:20:10.646Z,80.10
2023-02-13T00:22:38.247Z,80.08
2023-02-13T00:25:06.437Z,79.49
2023-02-13T00:27:33.837Z,80.00
2023-02-13T00:30:00.835Z,80.49
2023-02-13T00:32:27.750Z,80.14
2023-02-13T00:34:56.624Z,80.42
2023-02-13T00:37:23.868Z,81.05
2023-02-13T00:39:52.840Z,80.20
2023-02-13T00:42:24.089Z,80.22
2023-02-13T00:44:51.294Z,79.41
2023-02-13T00:47:18.731Z,79.65
2023-02-13T00:49:45.944Z,79.68
2023-02-13T00:52:13.217Z,78.96
2023-02-13T00:54:40.134Z,78.77
2023-02-13T00:57:07.056Z,78.39
2023-02-13T00:59:35.150Z,78.49
2023-02-13T01:02:02.148Z,78.32
2023-02-13T01:04:29.151Z,78.88
2023-02-13T01:06:57.497Z,78.23
2023-02-13T01:09:25.523Z,78.88
2023-02-13T01:11:52.787Z,79.30
2023-02-13T01:14:20.143Z,78.70
2023-02-13T01:16:49.268Z,79.27
2023-02-13T01:19:16.197Z,79.92
2023-02-13T01:21:44.402Z,80.43
2023-02-13T01:24:11.712Z,81.36
2023-02-13T01:26:38.763Z,79.95
2023-02-13T01:29:05.976Z,81.09
2023-02-13T01:31:33.117Z,81.15
2023-02-13T01:34:00.441Z,80.54
2023-02-13T01:36:27.710Z,80.57
2023-02-13T01:38:57.602Z,81.64
2023-02-13T01:41:25.932Z,81.20
2023-02-13T01:43:59.161Z,80.53
2023-02-13T01:46:36.026Z,81.31
2023-02-13T01:49:25.814Z,80.92
2023-02-13T01:51:56.588Z,81.42
2023-02-13T01:54:33.227Z,81.60
2023-02-13T01:57:15.113Z,81.57
2023-02-13T01:59:49.792Z,81.66
2023-02-13T02:02:18.527Z,81.64
2023-02-13T02:04:48.368Z,81.10
2023-02-13T02:07:22.918Z,81.49
2023-02-13T02:09:54.425Z,81.77
2023-02-13T02:12:29.098Z,81.99
2023-02-13T02:14:58.072Z,81.55
2023-02-13T02:17:26.787Z,82.00
2023-02-13T02:20:15.471Z,81.86
2023-02-13T02:22:51.609Z,81.60
2023-02-13T02:25:46.503Z,82.49
2023-02-13T02:28:52.650Z,82.53
2023-02-13T02:31:37.864Z,81.78
2023-02-13T02:34:10.556Z,82.49
2023-02-13T02:36:53.437Z,82.19
2023-02-13T02:39:43.480Z,82.86
2023-02-13T02:42:23.845Z,83.11
2023-02-13T02:44:53.869Z,83.37
2023-02-13T02:48:11.149Z,83.04
2023-02-13T02:50:43.884Z,82.96
2023-02-13T02:53:31.821Z,83.63
2023-02-13T02:56:06.285Z,83.86
2023-02-13T02:59:00.862Z,83.21
2023-02-13T03:01:51.278Z,83.31
2023-02-13T03:04:49.525Z,83.02
2023-02-13T03:07:18.762Z,83.58
2023-02-13T03:10:13.937Z,83.66
2023-02-13T03:13:17.682Z,83.25
2023-02-13T03:16:04.855Z,84.27
2023-02-13T03:18:54.953Z,84.50
2023-02-13T03:21:53.981Z,83.54
2023-02-13T03:24:27.412Z,84.54
2023-02-13T03:27:54.479Z,85.47
2023-02-13T03:30:37.162Z,85.17
2023-02-13T03:33:19.412Z,85.17
2023-02-13T03:36:25.743Z,84.45
2023-02-13T03:39:09.967Z,84.36
2023-02-13T03:41:48.918Z,84.73
2023-02-13T03:44:23.762Z,84.64
2023-02-13T03:46:53.646Z,84.30
2023-02-13T03:49:44.957Z,84.58
2023-02-13T03:52:51.184Z,83.62
2023-02-13T03:55:44.429Z,84.20
2023-02-13T03:58:32.546Z,84.26
2023-02-13T04:01:05.139Z,85.19
2023-02-13T04:03:53.264Z,85.27
2023-02-13T04:06:51.965Z,86.23
2023-02-13T04:09:19.310Z,86.48
2023-02-13T04:11:46.219Z,86.00
2023-02-13T04:14:24.104Z,85.95
2023-02-13T04:16:58.232Z,86.15
2023-02-13T04:19:26.906Z,86.53
2023-02-13T04:21:59.085Z,86.58
2023-02-13T04:24:27.353Z,86.54
2023-02-13T04:26:55.067Z,85.95
2023-02-13T04:29:23.557Z,85.52
2023-02-13T04:31:51.023Z,85.08
2023-02-13T04:34:18.092Z,84.76
2023-02-13T04:36:45.083Z,84.99
2023-02-13T04:39:12.423Z,85.12
2023-02-13T04:41:39.325Z,85.23
2023-02-13T04:44:06.336Z,85.04
2023-02-13T04:46:33.374Z,84.41
2023-02-13T04:49:00.429Z,84.94
2023-02-13T04:51:27.672Z,84.83
2023-02-13T04:53:54.811Z,85.41
2023-02-13T04:56:21.789Z,85.30
2023-02-13T04:58:48.801Z,84.96
2023-02-13T05:01:17.295Z,85.04
2023-02-13T05:03:44.354Z,85.22
2023-02-13T05:06:11.329Z,85.12
2023-02-13T05:08:38.726Z,85.66
2023-02-13T05:11:06.329Z,85.67
2023-02-13T05:13:34.111Z,85.71
2023-02-13T05:16:01.091Z,85.14
2023-02-13T05:18:28.003Z,85.47
2023-02-13T05:21:14.028Z,84.88
2023-02-13T05:23:41.042Z,85.16
2023-02-13T05:26:07.933Z,85.04
2023-02-13T05:28:53.336Z,85.01
2023-02-13T05:31:20.251Z,84.93
2023-02-13T05:33:47.263Z,85.16
2023-02-13T05:36:14.198Z,84.46
2023-02-13T05:38:41.452Z,84.44
2023-02-13T05:41:08.492Z,84.22
2023-02-13T05:43:35.429Z,84.83
2023-02-13T05:46:07.015Z,84.94
2023-02-13T05:48:34.487Z,85.56
2023-02-13T05:51:01.557Z,85.79
2023-02-13T05:53:29.945Z,85.51
2023-02-13T05:55:57.117Z,85.63
2023-02-13T05:58:24.189Z,85.24
2023-02-13T06:00:51.107Z,85.11
2023-02-13T06:03:17.955Z,84.64
2023-02-13T06:05:44.926Z,84.51
2023-02-13T06:08:11.824Z,83.71
2023-02-13T06:10:38.811Z,82.79
2023-02-13T06:13:05.688Z,82.48
2023-02-13T06:15:32.545Z,82.19
2023-02-13T06:17:59.904Z,81.33
2023-02-13T06:20:27.265Z,81.73
2023-02-13T06:22:54.198Z,80.96
2023-02-13T06:25:21.660Z,80.05
2023-02-13T06:27:48.589Z,80.36
2023-02-13T06:30:16.779Z,80.41
2023-02-13T06:32:44.335Z,80.78
2023-02-13T06:35:11.288Z,80.57
2023-02-13T06:37:39.346Z,80.00
2023-02-13T06:40:07.927Z,79.41
2023-02-13T06:42:34.879Z,79.31
2023-02-13T06:45:01.748Z,79.02
2023-02-13T06:47:28.623Z,78.38
2023-02-13T06:49:55.519Z,77.64
2023-02-13T06:52:22.469Z,76.81
2023-02-13T06:54:49.421Z,76.25
2023-02-13T06:57:16.669Z,75.38
2023-02-13T06:59:43.900Z,74.85
2023-02-13T07:02:14.180Z,74.92
2023-02-13T07:04:41.504Z,74.22
2023-02-13T07:07:08.512Z,73.05
2023-02-13T07:09:35.695Z,73.00
2023-02-13T07:12:04.762Z,72.92
2023-02-13T07:14:31.735Z,71.89
2023-02-13T07:16:58.864Z,70.71
2023-02-13T07:19:25.843Z,70.81
2023-02-13T07:21:52.758Z,70.63
2023-02-13T07:24:19.668Z,71.63
2023-02-13T07:26:46.579Z,70.33
2023-02-13T07:29:13.583Z,70.28
2023-02-13T07:31:40.554Z,70.22
2023-02-13T07:34:08.011Z,69.54
2023-02-13T07:36:35.234Z,69.19
2023-02-13T07:39:02.298Z,70.04
2023-02-13T07:41:29.399Z,68.82
2023-02-13T07:43:56.380Z,68.99
2023-02-13T07:46:23.498Z,68.99
2023-02-13T07:48:52.523Z,68.39
2023-02-13T07:51:19.475Z,69.26
2023-02-13T07:53:46.758Z,67.85
2023-02-13T07:56:13.728Z,67.53
2023-02-13T07:58:41.205Z,66.86
2023-02-13T08:01:10.317Z,66.33
2023-02-13T08:03:37.593Z,65.06
2023-02-13T08:06:05.751Z,65.43
2023-02-13T08:08:32.716Z,67.13
2023-02-13T08:11:27.136Z,66.29
2023-02-13T08:13:54.011Z,64.22
2023-02-13T08:16:21.019Z,64.06
2023-02-13T08:18:47.915Z,63.08
2023-02-13T08:21:15.485Z,64.19
2023-02-13T08:23:42.437Z,63.50
2023-02-13T08:26:11.272Z,61.87
2023-02-13T08:28:38.567Z,61.85
2023-02-13T08:31:13.056Z,61.26
2023-02-13T08:33:41.601Z,58.39
2023-02-13T08:36:08.996Z,56.74
2023-02-13T08:38:35.951Z,56.97
2023-02-13T08:41:02.846Z,56.97
2023-02-13T08:43:29.759Z,55.94
2023-02-13T08:46:01.101Z,55.25
2023-02-13T08:48:29.739Z,54.93
2023-02-13T08:50:56.806Z,55.45
2023-02-13T08:53:23.824Z,54.91
2023-02-13T08:55:55.220Z,56.89
2023-02-13T08:58:22.650Z,55.81
2023-02-13T09:00:50.239Z,55.13
2023-02-13T09:03:17.229Z,53.36
2023-02-13T09:05:44.180Z,55.57
2023-02-13T09:08:14.020Z,55.79
2023-02-13T09:10:43.904Z,55.14
2023-02-13T09:13:11.147Z,55.53
2023-02-13T09:15:41.686Z,54.68
2023-02-13T09:18:08.626Z,53.63
2023-02-13T09:20:36.254Z,56.62
2023-02-13T09:23:03.613Z,54.84
2023-02-13T09:25:30.524Z,54.15
2023-02-13T09:27:57.464Z,53.77
2023-02-13T09:30:24.648Z,53.01
2023-02-13T09:32:55.309Z,50.66
2023-02-13T09:35:23.699Z,50.59
2023-02-13T09:37:50.567Z,51.29
2023-02-13T09:40:43.223Z,51.72
2023-02-13T09:43:30.603Z,50.87
2023-02-13T10:17:37.023Z,52.77
2023-02-13T10:20:08.789Z,52.52
2023-02-13T10:22:41.550Z,52.48
2023-02-13T10:25:40.637Z,50.93
2023-02-13T10:28:15.688Z,50.30
2023-02-13T10:31:05.454Z,51.19
2023-02-13T10:33:36.376Z,52.76
2023-02-13T10:36:24.457Z,51.18
2023-02-13T10:39:00.329Z,51.55
2023-02-13T10:41:48.791Z,50.29
2023-02-13T10:44:56.033Z,50.71
2023-02-13T10:47:25.829Z,50.15
2023-02-13T10:50:11.662Z,53.07
2023-02-13T10:53:00.325Z,50.17
2023-02-13T10:55:46.039Z,51.87
2023-02-13T10:58:19.257Z,51.82
2023-02-13T11:01:07.098Z,53.74
2023-02-13T11:03:34.044Z,53.29
2023-02-13T11:06:07.835Z,53.23
2023-02-13T11:08:44.655Z,52.75
2023-02-13T11:11:36.272Z,50.68
2023-02-13T11:14:14.105Z,51.57
2023-02-13T11:16:48.852Z,53.38
2023-02-13T11:19:22.533Z,53.07
2023-02-13T11:21:54.695Z,53.32
2023-02-13T11:24:27.386Z,52.43
2023-02-13T11:27:05.982Z,51.91
2023-02-13T11:29:34.888Z,53.45
2023-02-13T11:32:29.719Z,53.07
2023-02-13T11:34:57.275Z,53.46
2023-02-13T11:37:29.821Z,51.98
2023-02-13T11:39:59.989Z,52.81
2023-02-13T11:42:36.434Z,53.98
2023-02-13T11:45:23.093Z,51.57
2023-02-13T11:47:50.503Z,51.64
2023-02-13T11:50:23.242Z,51.95
2023-02-13T11:53:04.499Z,52.25
2023-02-13T11:55:39.463Z,52.90
2023-02-13T11:58:12.111Z,52.25
2023-02-13T12:00:41.538Z,52.48
2023-02-13T12:03:29.030Z,53.61
2023-02-13T12:06:16.219Z,51.92
2023-02-13T12:08:47.037Z,52.84
2023-02-13T12:11:44.117Z,51.49
2023-02-13T12:14:18.684Z,51.09
2023-02-13T12:16:55.302Z,51.11
2023-02-13T12:19:25.221Z,51.50
2023-02-13T12:22:28.093Z,51.37
2023-02-13T12:25:04.983Z,51.03
2023-02-13T12:27:42.837Z,51.01
2023-02-13T12:30:12.911Z,51.90
2023-02-13T12:33:16.583Z,53.36
2023-02-13T12:36:01.791Z,51.97
2023-02-13T12:38:48.750Z,51.07
2023-02-13T12:41:25.326Z,51.96
2023-02-13T12:44:23.813Z,52.83
2023-02-13T12:47:15.079Z,53.27
2023-02-13T12:49:59.048Z,53.48
2023-02-13T12:52:45.145Z,51.78
2023-02-13T12:55:18.154Z,51.77
2023-02-13T12:57:57.029Z,52.32
2023-02-13T13:00:45.885Z,53.25
2023-02-13T13:03:51.521Z,53.57
2023-02-13T13:06:33.232Z,53.68
2023-02-13T13:09:10.819Z,53.49
2023-02-13T13:12:02.375Z,54.00
2023-02-13T13:14:38.829Z,53.15
2023-02-13T13:17:09.370Z,52.62
2023-02-13T13:19:52.709Z,53.12
2023-02-13T13:22:30.692Z,51.54
2023-02-13T13:25:03.463Z,53.54
2023-02-13T13:27:38.295Z,52.94
2023-02-13T13:30:14.784Z,52.33
2023-02-13T13:32:44.254Z,53.06
2023-02-13T13:35:20.041Z,51.66
2023-02-13T13:38:25.546Z,51.82
2023-02-13T13:41:07.212Z,52.20
2023-02-13T13:43:57.843Z,52.40
2023-02-13T13:46:43.796Z,52.48
2023-02-13T13:49:16.690Z,50.95
2023-02-13T13:51:43.754Z,50.98
2023-02-13T13:54:10.559Z,50.55
2023-02-13T13:57:02.298Z,52.12
2023-02-13T13:59:38.304Z,52.33
2023-02-13T14:02:17.600Z,51.68
2023-02-13T14:05:10.622Z,49.49
2023-02-13T14:07:43.858Z,48.96
2023-02-13T14:10:26.323Z,51.05
2023-02-13T14:12:56.808Z,48.85
2023-02-13T14:15:39.061Z,50.47
2023-02-13T14:18:14.955Z,48.41
2023-02-13T14:20:43.107Z,47.59
2023-02-13T14:23:34.290Z,47.92
2023-02-13T14:26:16.578Z,48.55
2023-02-13T14:28:49.239Z,49.26
2023-02-13T14:31:22.489Z,47.87
2023-02-13T14:34:02.894Z,50.24
2023-02-13T14:36:42.379Z,47.92
2023-02-13T14:39:42.355Z,48.82
2023-02-13T14:42:30.032Z,48.05
2023-02-13T14:45:00.743Z,46.99
2023-02-13T14:47:57.829Z,46.75
2023-02-13T14:50:30.548Z,46.97
2023-02-13T14:53:03.518Z,47.47
2023-02-13T14:55:46.726Z,48.27
2023-02-13T14:58:25.228Z,49.29
2023-02-13T15:01:06.147Z,48.80
2023-02-13T15:03:49.916Z,49.08
2023-02-13T15:06:27.877Z,49.44
2023-02-13T15:08:58.175Z,49.17
2023-02-13T15:11:36.201Z,49.46
2023-02-13T15:14:25.782Z,48.88
2023-02-13T15:16:57.865Z,48.72
2023-02-13T15:19:26.161Z,49.10
2023-02-13T15:21:57.166Z,49.47
2023-02-13T15:24:25.247Z,49.86
2023-02-13T15:27:04.230Z,49.96
2023-02-13T15:29:47.575Z,49.39
2023-02-13T15:32:29.400Z,49.73
2023-02-13T15:34:56.597Z,50.08
2023-02-13T15:37:27.641Z,50.84
2023-02-13T15:39:54.797Z,51.15
2023-02-13T15:42:22.035Z,51.28
2023-02-13T15:44:53.275Z,51.53
2023-02-13T15:47:30.746Z,52.60
2023-02-13T15:49:57.882Z,53.23
2023-02-13T15:52:34.437Z,52.56
2023-02-13T15:55:01.239Z,51.98
2023-02-13T15:57:28.925Z,52.46
2023-02-13T15:59:57.771Z,54.20
2023-02-13T16:02:34.098Z,53.95
2023-02-13T16:05:02.282Z,55.57
2023-02-13T16:07:30.780Z,54.71
2023-02-13T16:10:33.056Z,53.65
2023-02-13T16:13:16.892Z,55.13
2023-02-13T16:15:44.131Z,55.77
2023-02-13T16:18:20.094Z,56.45
2023-02-13T16:20:53.382Z,55.00
2023-02-13T16:23:21.222Z,55.86
2023-02-13T16:25:48.964Z,54.70
2023-02-13T16:28:25.773Z,55.88
2023-02-13T16:30:59.539Z,56.03
2023-02-13T16:33:43.546Z,55.84
2023-02-13T16:36:10.487Z,55.79
2023-02-13T16:38:41.472Z,55.06
2023-02-13T16:41:22.100Z,56.25
2023-02-13T16:43:53.087Z,57.60
2023-02-13T16:46:24.934Z,59.51
2023-02-13T16:48:58.311Z,59.38
2023-02-13T16:51:39.174Z,57.94
2023-02-13T16:54:15.736Z,59.50
2023-02-13T16:56:51.669Z,59.22
2023-02-13T16:59:21.483Z,59.24
2023-02-13T17:01:49.074Z,58.74
2023-02-13T17:04:25.693Z,58.03
2023-02-13T17:06:56.204Z,59.57
2023-02-13T17:09:24.124Z,61.06
2023-02-13T17:11:53.428Z,62.03
2023-02-13T17:14:20.608Z,62.50
2023-02-13T17:16:48.838Z,62.25
2023-02-13T17:19:15.834Z,62.10
2023-02-13T17:21:42.795Z,62.55
2023-02-13T17:24:16.796Z,63.04
2023-02-13T17:26:44.080Z,63.37
2023-02-13T17:29:10.967Z,62.96
2023-02-13T17:31:38.061Z,61.62
2023-02-13T17:34:05.920Z,60.88
2023-02-13T17:36:32.829Z,61.71
2023-02-13T17:38:59.767Z,62.80
2023-02-13T17:41:26.727Z,62.74
2023-02-13T17:43:53.620Z,64.13
2023-02-13T17:46:20.716Z,63.73
2023-02-13T17:48:47.581Z,62.76
2023-02-13T17:51:14.973Z,61.81
2023-02-13T17:53:41.959Z,61.06
2023-02-13T17:56:08.871Z,61.39
2023-02-13T17:58:35.772Z,61.32
2023-02-13T18:01:03.487Z,61.71
2023-02-13T18:03:30.627Z,61.22
2023-02-13T18:05:57.579Z,62.51
2023-02-13T18:08:24.817Z,63.94
2023-02-13T18:10:51.700Z,65.08
2023-02-13T18:13:18.702Z,66.17
2023-02-13T18:15:45.800Z,66.09
2023-02-13T18:18:16.166Z,65.92
2023-02-13T18:20:44.409Z,67.36
2023-02-13T18:23:11.370Z,68.42
2023-02-13T18:25:38.314Z,68.88
2023-02-13T18:28:05.344Z,69.27
2023-02-13T18:30:32.313Z,68.50
2023-02-13T18:32:59.466Z,69.39
2023-02-13T18:35:27.020Z,69.47
2023-02-13T18:37:54.309Z,70.95
2023-02-13T18:40:21.596Z,71.17
2023-02-13T18:42:51.092Z,71.17
2023-02-13T18:45:18.317Z,70.79
2023-02-13T18:47:45.461Z,70.18
2023-02-13T18:50:12.411Z,73.28
2023-02-13T18:52:39.478Z,74.03
2023-02-13T18:55:07.401Z,73.57
2023-02-13T18:57:34.755Z,73.31
2023-02-13T19:00:01.804Z,73.53
2023-02-13T19:02:28.797Z,75.12
2023-02-13T19:04:55.697Z,75.71
2023-02-13T19:07:22.926Z,75.92
2023-02-13T19:09:50.024Z,74.17
2023-02-13T19:12:17.307Z,74.30
2023-02-13T19:14:44.365Z,74.53
2023-02-13T19:17:11.419Z,74.12
2023-02-13T19:19:38.417Z,74.79
2023-02-13T19:22:05.320Z,74.83
2023-02-13T19:24:32.540Z,75.30
2023-02-13T19:27:00.580Z,76.00
2023-02-13T19:29:27.603Z,76.35
2023-02-13T19:31:54.925Z,75.47
2023-02-13T19:34:22.143Z,77.03
2023-02-13T19:36:49.096Z,76.43
2023-02-13T19:39:16.185Z,77.29
2023-02-13T19:41:44.310Z,76.24
2023-02-13T19:44:11.512Z,77.46
2023-02-13T19:46:38.815Z,78.31
2023-02-13T19:49:06.814Z,78.30
2023-02-13T19:51:35.061Z,79.55
2023-02-13T19:54:07.197Z,79.62
2023-02-13T19:56:37.161Z,78.81
2023-02-13T19:59:05.525Z,79.47
2023-02-13T20:01:32.802Z,80.08
2023-02-13T20:03:59.813Z,81.04
2023-02-13T20:06:32.677Z,80.83
2023-02-13T20:09:01.970Z,81.25
2023-02-13T20:11:29.667Z,80.86
2023-02-13T20:14:00.852Z,80.55
2023-02-13T20:16:33.309Z,79.05
2023-02-13T20:19:03.690Z,79.40
2023-02-13T20:21:30.744Z,79.16
2023-02-13T20:23:57.849Z,79.24
2023-02-13T20:26:24.932Z,79.25
2023-02-13T20:28:51.946Z,78.62
2023-02-13T20:31:21.507Z,79.05
2023-02-13T20:33:50.259Z,78.90
2023-02-13T20:36:19.844Z,78.84
2023-02-13T20:38:46.836Z,79.29
2023-02-13T20:41:13.824Z,78.65
2023-02-13T20:43:41.491Z,78.91
2023-02-13T20:46:09.082Z,78.73
2023-02-13T20:48:37.165Z,79.63
2023-02-13T20:51:06.440Z,80.93
2023-02-13T20:53:33.855Z,81.13
2023-02-13T20:56:06.684Z,81.05
2023-02-13T20:58:34.460Z,80.77
2023-02-13T21:01:01.921Z,81.43
2023-02-13T21:03:29.492Z,81.27
2023-02-13T21:05:56.440Z,82.73
2023-02-13T21:08:23.351Z,82.12
2023-02-13T21:10:50.298Z,82.30
2023-02-13T21:13:17.466Z,82.78
2023-02-13T21:15:48.300Z,81.98
2023-02-13T21:18:15.634Z,82.54
2023-02-13T21:20:42.571Z,82.62
2023-02-13T21:23:09.625Z,82.83
2023-02-13T21:25:36.571Z,82.15
2023-02-13T21:28:03.582Z,81.83
2023-02-13T21:30:30.643Z,82.57
2023-02-13T21:32:57.615Z,82.04
2023-02-13T21:35:24.520Z,82.69
2023-02-13T21:37:51.469Z,83.04
2023-02-13T21:40:19.970Z,82.75
2023-02-13T21:42:46.929Z,82.63
2023-02-13T21:45:13.876Z,82.61
2023-02-13T21:47:40.775Z,82.63
2023-02-13T21:50:08.102Z,83.15
2023-02-13T21:52:35.584Z,82.56
2023-02-13T21:55:03.237Z,82.87
2023-02-13T21:57:30.110Z,82.34
2023-02-13T21:59:57.433Z,81.69
2023-02-13T22:02:27.113Z,82.14
2023-02-13T22:04:54.133Z,81.87
2023-02-13T22:07:21.049Z,82.79
2023-02-13T22:09:50.050Z,80.54
2023-02-13T22:12:16.902Z,80.60
2023-02-13T22:14:43.850Z,80.48
2023-02-13T22:17:10.905Z,80.06
2023-02-13T22:19:38.022Z,80.29
2023-02-13T22:22:04.902Z,78.78
2023-02-13T22:24:32.813Z,78.69
2023-02-13T22:26:59.770Z,78.00
2023-02-13T22:29:27.245Z,79.13
2023-02-13T22:31:54.169Z,79.16
2023-02-13T22:34:21.209Z,79.98
2023-02-13T22:36:48.147Z,79.28
2023-02-13T22:39:15.113Z,80.06
2023-02-13T22:41:44.536Z,79.67
2023-02-13T22:44:11.566Z,81.06
2023-02-13T22:46:38.713Z,81.63
2023-02-13T22:49:05.604Z,81.59
2023-02-13T22:51:35.422Z,81.65
2023-02-13T22:54:03.133Z,81.90
2023-02-13T22:56:31.149Z,81.67
2023-02-13T22:58:59.577Z,82.03
2023-02-13T23:01:28.067Z,82.24
2023-02-13T23:03:55.818Z,82.98
2023-02-13T23:06:23.899Z,83.41
2023-02-13T23:08:53.486Z,83.64
2023-02-13T23:11:41.947Z,83.58
2023-02-13T23:14:10.381Z,83.80
2023-02-13T23:17:00.259Z,83.67
2023-02-13T23:19:29.851Z,83.87
2023-02-13T23:21:57.294Z,83.57
2023-02-13T23:24:24.321Z,84.34
2023-02-13T23:26:51.215Z,84.57
2023-02-13T23:29:18.341Z,84.85
2023-02-13T23:31:45.337Z,84.49
2023-02-13T23:34:12.457Z,84.13
2023-02-13T23:36:39.328Z,84.12
2023-02-13T23:39:06.334Z,84.55
2023-02-13T23:41:33.330Z,84.83
2023-02-13T23:44:00.198Z,84.74
2023-02-13T23:46:27.549Z,84.44
2023-02-13T23:48:54.517Z,84.87
2023-02-13T23:51:23.201Z,84.58
2023-02-13T23:53:50.131Z,84.24
2023-02-13T23:56:17.057Z,83.89
2023-02-13T23:58:43.948Z,83.90
